ロンドン/ヒースロー の空港の天気 - METARとTAF

ロンドン・ヒースロー空港 ( EGLL / LHR ) - イギリス ロンドン
飛行場実況気象(Metar)
観測時間08/18 14:50 BST (08/18 13:50 UTC)
風向・風速南西 5m/s
視程10km以上
天気現象
少しの雲 雲底高度 1190m
気温25℃
湿度54%
気圧1013hPa
METAREGLL 181350Z AUTO 23009KT 190V270 9999 FEW039 25/15 Q1013 NOSIG
過去の天気等 Google飛行場航空写真 Wunderground天気予報

過去48時間のMETAR

飛行場予報(TAF)
発表時間: 8/18 11:54 BST (8/18 10:54 UTC)
予報対象時間: 18日13時 BST ~ 19日19時 BST
風向・風速南西 4m/s
視程10km以上
全天の4割程度の雲 雲底高度 1220m
18日23時 BST ~ 19日10時 BST に一時的に
全天の8割程度の雲 雲底高度 370m
19日1時 BST ~ 19日9時 BST に 確率 30% で一時的に
視程8000m
天気現象弱い雨霧雨 しゅう雨
全天の8割程度の雲 雲底高度 270m
TAF EGLL 181054Z 1812/1918 23007KT 9999 SCT040
TEMPO 1822/1909 BKN012
PROB30 TEMPO 1900/1908 8000 -RADZ SHRA BKN009